KRVS/RVS METAR and TAF weather

Enter ICAO airport designator
Station Type Date Time Source
KRVS METAR 2018/12/15 19:53 UTC NOAA

KRVS 151953Z 03007KT 10SM CLR 13/M06 A3014 RMK AO2 SLP211 T01331056


Station Type Date Time Source
KRVS Decoded METAR 2018/12/15 19:53 UTC NOAA

TULSA JONES JR. AIRPORT, OK, United States (KRVS) 36-03N 095-59W 200M
Dec 15, 2018 - 02:53 PM EST / 2018.12.15 1953 UTC
Wind: from the NNE (030 degrees) at 8 MPH (7 KT):0
Visibility: 10 mile(s):0
Sky conditions: clear
Temperature: 55.9 F (13.3 C)
Dew Point: 21.9 F (-5.6 C)
Relative Humidity: 26%
Pressure (altimeter): 30.14 in. Hg (1020 hPa)
ob: KRVS 151953Z 03007KT 10SM CLR 13/M06 A3014 RMK AO2 SLP211 T01331056
cycle: 20

Station Type Date Time Source
KRVS TAF 2018/12/15 18:22 UTC NOAA

TAF KRVS 151720Z 1518/1618 01008KT P6SM SKC
FM160000 VRB03KT P6SM SCT250


Example: see airport list